createdAt,value
2019-06-20T00:00:49.918Z,11.70
2019-06-20T00:03:23.377Z,13.53
2019-06-20T00:05:53.717Z,12.67
2019-06-20T00:08:24.776Z,13.03
2019-06-20T00:10:57.352Z,12.57
2019-06-20T00:13:27.487Z,13.67
2019-06-20T00:15:57.555Z,14.27
2019-06-20T00:18:29.722Z,13.33
2019-06-20T00:21:03.126Z,12.47
2019-06-20T00:23:34.257Z,13.00
2019-06-20T00:26:05.372Z,13.70
2019-06-20T00:28:36.433Z,12.80
2019-06-20T00:31:06.426Z,12.83
2019-06-20T00:33:38.148Z,13.77
2019-06-20T00:36:09.251Z,13.80
2019-06-20T00:38:40.775Z,13.87
2019-06-20T00:41:10.928Z,13.03
2019-06-20T00:43:41.921Z,13.03
2019-06-20T00:46:14.488Z,15.00
2019-06-20T00:48:44.478Z,12.93
2019-06-20T00:51:17.626Z,13.65
2019-06-20T00:53:48.570Z,13.67
2019-06-20T00:56:26.364Z,13.98
2019-06-20T00:58:57.651Z,14.00
2019-06-20T01:01:27.595Z,13.43
2019-06-20T01:03:57.697Z,13.53
2019-06-20T01:06:30.084Z,13.93
2019-06-20T01:09:01.361Z,13.43
2019-06-20T01:11:30.767Z,15.17
2019-06-20T01:14:00.792Z,14.33
2019-06-20T01:16:33.293Z,14.10
2019-06-20T01:19:06.770Z,14.60
2019-06-20T01:21:38.211Z,14.97
2019-06-20T01:24:08.787Z,13.70
2019-06-20T01:26:41.074Z,12.97
2019-06-20T01:29:11.248Z,13.57
2019-06-20T01:31:42.219Z,13.67
2019-06-20T01:34:15.560Z,12.37
2019-06-20T01:36:45.704Z,12.80
2019-06-20T01:39:15.690Z,12.43
2019-06-20T01:41:44.963Z,12.53
2019-06-20T01:44:16.210Z,12.75
2019-06-20T01:46:46.286Z,12.87
2019-06-20T01:49:17.263Z,11.53
2019-06-20T01:51:49.695Z,12.77
2019-06-20T01:54:18.993Z,13.58
2019-06-20T01:56:48.378Z,13.27
2019-06-20T01:59:19.681Z,12.88
2019-06-20T02:01:50.781Z,13.30
2019-06-20T02:04:20.748Z,12.20
2019-06-20T02:06:54.217Z,12.30
2019-06-20T02:09:25.667Z,11.95
2019-06-20T02:11:59.265Z,12.87
2019-06-20T02:14:31.779Z,12.10
2019-06-20T02:17:06.652Z,12.43
2019-06-20T02:19:36.873Z,12.40
2019-06-20T02:22:07.738Z,12.90
2019-06-20T02:24:38.824Z,13.53
2019-06-20T02:27:08.890Z,13.17
2019-06-20T02:29:39.925Z,14.27
2019-06-20T02:32:11.163Z,14.33
2019-06-20T02:34:44.563Z,15.27
2019-06-20T02:37:15.655Z,14.90
2019-06-20T02:39:48.991Z,16.03
2019-06-20T02:42:20.132Z,16.10
2019-06-20T02:58:00.085Z,15.57
2019-06-20T03:00:35.832Z,15.93
2019-06-20T03:03:06.082Z,15.77
2019-06-20T03:05:37.212Z,15.53
2019-06-20T03:08:10.002Z,14.30
2019-06-20T03:10:43.466Z,14.80
2019-06-20T03:13:14.934Z,14.03
2019-06-20T03:15:44.303Z,15.33
2019-06-20T03:18:15.754Z,15.00
2019-06-20T03:20:46.998Z,13.10
2019-06-20T03:23:19.800Z,13.15
2019-06-20T03:25:51.209Z,14.10
2019-06-20T03:28:20.586Z,15.50
2019-06-20T03:30:52.092Z,14.93
2019-06-20T03:33:22.187Z,15.03
2019-06-20T03:35:53.284Z,15.13
2019-06-20T03:38:25.082Z,15.55
2019-06-20T03:40:56.315Z,16.67
2019-06-20T03:43:26.379Z,16.97
2019-06-20T03:45:58.892Z,16.67
2019-06-20T03:48:30.103Z,17.17
2019-06-20T03:51:01.150Z,16.10
2019-06-20T03:53:31.048Z,17.50
2019-06-20T03:56:01.030Z,17.37
2019-06-20T03:58:34.504Z,39.47
2019-06-20T04:01:07.912Z,30.70
2019-06-20T04:03:38.901Z,18.40
2019-06-20T04:06:08.897Z,17.73
2019-06-20T04:08:40.195Z,16.77
2019-06-20T04:11:11.108Z,16.30
2019-06-20T04:13:43.714Z,15.63
2019-06-20T04:16:15.063Z,15.43
2019-06-20T04:18:44.532Z,15.70
2019-06-20T04:21:16.167Z,16.27
2019-06-20T04:23:47.312Z,16.30
2019-06-20T04:26:18.462Z,17.27
2019-06-20T04:28:53.627Z,14.47
2019-06-20T04:31:24.815Z,16.37
2019-06-20T04:33:54.184Z,15.63
2019-06-20T04:36:26.618Z,13.67
2019-06-20T04:39:01.144Z,13.73
2019-06-20T04:41:32.905Z,11.20
2019-06-20T04:44:05.402Z,12.40
2019-06-20T04:46:40.194Z,12.63
2019-06-20T04:49:11.509Z,11.67
2019-06-20T04:51:42.689Z,12.03
2019-06-20T04:54:12.826Z,10.97
2019-06-20T04:56:45.186Z,10.30
2019-06-20T04:59:16.241Z,11.43
2019-06-20T05:01:47.308Z,10.37
2019-06-20T05:04:18.611Z,10.68
2019-06-20T05:06:51.525Z,11.10
2019-06-20T05:09:23.994Z,10.70
2019-06-20T05:11:57.339Z,9.97
2019-06-20T05:14:28.743Z,10.03
2019-06-20T05:17:02.094Z,10.13
2019-06-20T05:19:31.925Z,9.53
2019-06-20T05:22:03.323Z,10.23
2019-06-20T05:24:36.858Z,10.47
2019-06-20T05:27:06.908Z,9.80
2019-06-20T05:29:36.752Z,10.70
2019-06-20T05:32:07.959Z,10.83
2019-06-20T05:34:40.492Z,10.17
2019-06-20T05:37:10.430Z,10.30
2019-06-20T05:39:40.668Z,10.47
2019-06-20T05:42:10.639Z,9.87
2019-06-20T05:44:41.869Z,9.93
2019-06-20T05:47:14.120Z,9.87
2019-06-20T05:49:44.180Z,10.27
2019-06-20T05:52:15.431Z,10.70
2019-06-20T05:54:48.696Z,10.63
2019-06-20T05:57:20.106Z,10.80
2019-06-20T05:59:51.532Z,10.20
2019-06-20T06:02:22.168Z,11.53
2019-06-20T06:05:00.138Z,10.97
2019-06-20T06:07:32.604Z,10.93
2019-06-20T06:10:05.607Z,10.30
2019-06-20T06:12:37.500Z,10.90
2019-06-20T06:15:13.753Z,10.60
2019-06-20T06:17:45.266Z,10.83
2019-06-20T06:20:15.766Z,10.03
2019-06-20T06:22:50.651Z,10.67
2019-06-20T06:25:22.272Z,11.27
2019-06-20T06:27:53.725Z,11.70
2019-06-20T06:30:23.710Z,11.13
2019-06-20T06:32:55.486Z,10.87
2019-06-20T06:35:26.510Z,10.30
2019-06-20T06:37:59.939Z,11.13
2019-06-20T06:40:31.409Z,10.70
2019-06-20T06:43:04.444Z,10.13
2019-06-20T06:45:39.794Z,10.77
2019-06-20T06:48:14.456Z,10.18
2019-06-20T06:50:47.355Z,10.13
2019-06-20T06:53:21.851Z,9.93
2019-06-20T06:55:56.761Z,10.13
2019-06-20T06:58:27.331Z,10.60
2019-06-20T07:00:58.161Z,9.63
2019-06-20T07:03:30.022Z,9.30
2019-06-20T07:06:00.668Z,10.03
2019-06-20T07:08:32.671Z,9.63
2019-06-20T07:11:05.321Z,9.20
2019-06-20T07:13:36.410Z,9.50
2019-06-20T07:16:07.092Z,9.23
2019-06-20T07:18:38.411Z,10.87
2019-06-20T07:21:11.731Z,10.17
2019-06-20T07:26:18.528Z,9.73
2019-06-20T07:28:51.440Z,10.23
2019-06-20T07:47:18.171Z,10.13
2019-06-20T07:49:47.391Z,10.97
2019-06-20T07:52:19.902Z,10.90
2019-06-20T07:54:51.931Z,11.10
2019-06-20T07:57:23.223Z,9.63
2019-06-20T08:02:38.781Z,10.77
2019-06-20T08:05:09.371Z,16.13
2019-06-20T08:07:39.279Z,10.97
2019-06-20T08:10:13.006Z,9.93
2019-06-20T08:12:43.407Z,8.77
2019-06-20T08:15:16.522Z,9.40
2019-06-20T08:17:51.633Z,9.07
2019-06-20T08:20:22.201Z,10.53
2019-06-20T08:22:52.942Z,9.40
2019-06-20T08:25:24.789Z,10.13
2019-06-20T08:28:02.500Z,10.40
2019-06-20T08:30:36.458Z,10.60
2019-06-20T08:33:12.221Z,9.77
2019-06-20T08:35:45.575Z,10.60
2019-06-20T08:38:16.865Z,10.43
2019-06-20T08:40:47.482Z,10.97
2019-06-20T08:54:19.422Z,10.93
2019-06-20T08:56:49.445Z,10.53
2019-06-20T08:59:24.359Z,10.20
2019-06-20T09:01:55.996Z,10.97
2019-06-20T09:04:27.633Z,9.87
2019-06-20T09:09:37.971Z,10.33
2019-06-20T09:12:09.590Z,9.47
2019-06-20T09:14:41.185Z,9.70
2019-06-20T09:17:17.028Z,9.20
2019-06-20T09:19:51.743Z,9.27
2019-06-20T09:22:23.088Z,8.10
2019-06-20T09:24:53.673Z,8.17
2019-06-20T09:27:25.162Z,7.83
2019-06-20T09:29:56.204Z,8.43
2019-06-20T09:32:26.394Z,7.80
2019-06-20T09:34:58.667Z,7.83
2019-06-20T09:37:33.466Z,6.60
2019-06-20T09:40:06.461Z,7.03
2019-06-20T10:31:03.159Z,4.83
2019-06-20T10:33:34.369Z,4.33
2019-06-20T10:36:05.829Z,4.33
2019-06-20T10:38:35.808Z,4.70
2019-06-20T10:41:07.763Z,4.18
2019-06-20T10:43:37.980Z,4.92
2019-06-20T10:46:09.445Z,4.62
2019-06-20T10:48:42.520Z,4.40
2019-06-20T10:51:31.446Z,5.17
2019-06-20T10:54:02.650Z,5.12
2019-06-20T10:56:32.786Z,11.45
2019-06-20T10:59:05.283Z,5.62
2019-06-20T11:01:36.489Z,17.00
2019-06-20T11:04:09.603Z,5.28
2019-06-20T11:06:40.042Z,4.50
2019-06-20T11:09:14.140Z,5.35
2019-06-20T11:11:44.769Z,5.85
2019-06-20T11:14:15.980Z,3.73
2019-06-20T11:16:47.202Z,3.20
2019-06-20T11:19:18.454Z,3.77
2019-06-20T11:21:48.683Z,3.83
2019-06-20T11:24:19.722Z,3.63
2019-06-20T11:26:50.749Z,4.00
2019-06-20T11:29:21.997Z,4.25
2019-06-20T11:31:52.493Z,4.03
2019-06-20T11:34:24.892Z,4.17
2019-06-20T11:36:58.133Z,4.22
2019-06-20T11:39:29.415Z,3.98
2019-06-20T11:42:03.128Z,3.83
2019-06-20T11:44:35.326Z,3.70
2019-06-20T11:47:07.688Z,4.20
2019-06-20T11:49:40.900Z,6.55
2019-06-20T11:52:13.622Z,2.98
2019-06-20T11:54:45.022Z,3.40
2019-06-20T11:57:18.439Z,5.77
2019-06-20T11:59:52.121Z,3.70
2019-06-20T12:02:23.398Z,3.45
2019-06-20T12:04:55.773Z,4.80
2019-06-20T12:07:28.809Z,3.08
2019-06-20T12:10:00.330Z,3.12
2019-06-20T12:12:32.716Z,3.50
2019-06-20T12:15:07.107Z,3.40
2019-06-20T12:17:39.832Z,3.42
2019-06-20T12:20:11.838Z,3.40
2019-06-20T12:22:43.593Z,3.47
2019-06-20T12:25:16.379Z,2.83
2019-06-20T12:27:47.836Z,2.83
2019-06-20T12:30:21.318Z,3.10
2019-06-20T12:32:53.813Z,3.22
2019-06-20T12:35:24.924Z,3.00
2019-06-20T12:37:55.221Z,2.85
2019-06-20T12:40:25.467Z,3.05
2019-06-20T12:42:55.575Z,2.17
2019-06-20T12:45:32.119Z,2.36
2019-06-20T12:48:03.570Z,2.05
2019-06-20T12:50:33.625Z,2.40
2019-06-20T12:53:05.278Z,2.75
2019-06-20T12:55:37.266Z,2.80
2019-06-20T12:58:09.661Z,2.55
2019-06-20T13:00:43.637Z,2.45
2019-06-20T13:03:16.573Z,2.50
2019-06-20T13:05:49.021Z,2.40
2019-06-20T13:08:20.451Z,2.40
2019-06-20T13:10:53.719Z,2.20
2019-06-20T13:13:25.467Z,2.33
2019-06-20T13:15:56.723Z,2.35
2019-06-20T13:18:29.398Z,2.08
2019-06-20T13:21:04.076Z,2.27
2019-06-20T13:23:36.461Z,2.20
2019-06-20T13:26:08.006Z,3.10
2019-06-20T13:31:29.926Z,2.55
2019-06-20T13:34:02.449Z,2.72
2019-06-20T13:36:33.596Z,2.80
2019-06-20T13:39:04.010Z,3.00
2019-06-20T13:41:35.689Z,2.95
2019-06-20T13:44:08.499Z,2.72
2019-06-20T13:46:40.031Z,2.65
2019-06-20T13:49:10.863Z,2.85
2019-06-20T13:51:41.942Z,2.85
2019-06-20T13:54:11.903Z,2.42
2019-06-20T13:56:43.631Z,2.60
2019-06-20T13:59:17.779Z,2.30
2019-06-20T14:01:49.466Z,2.27
2019-06-20T14:04:20.556Z,2.80
2019-06-20T14:06:51.513Z,2.37
2019-06-20T14:09:24.083Z,2.70
2019-06-20T14:11:55.043Z,2.52
2019-06-20T14:14:25.336Z,2.60
2019-06-20T14:16:55.573Z,2.90
2019-06-20T14:19:28.413Z,2.27
2019-06-20T14:21:58.986Z,2.40
2019-06-20T14:24:30.324Z,2.17
2019-06-20T14:27:02.390Z,2.50
2019-06-20T14:29:33.769Z,2.45
2019-06-20T14:32:04.809Z,2.40
2019-06-20T14:34:37.273Z,2.30
2019-06-20T14:37:10.819Z,2.15
2019-06-20T14:39:45.940Z,2.52
2019-06-20T14:42:18.657Z,2.58
2019-06-20T14:44:49.786Z,4.12
2019-06-20T14:47:24.342Z,2.83
2019-06-20T14:49:54.604Z,2.50
2019-06-20T14:52:27.656Z,2.50
2019-06-20T14:54:57.796Z,2.95
2019-06-20T14:57:30.231Z,2.60
2019-06-20T15:00:02.646Z,2.30
2019-06-20T15:02:38.743Z,2.70
2019-06-20T15:05:20.231Z,3.02
2019-06-20T15:07:52.105Z,2.85
2019-06-20T15:10:23.466Z,2.50
2019-06-20T15:12:55.947Z,2.42
2019-06-20T15:15:26.825Z,2.70
2019-06-20T15:18:01.731Z,2.85
2019-06-20T15:20:32.754Z,3.65
2019-06-20T15:23:02.941Z,3.98
2019-06-20T15:25:34.151Z,4.17
2019-06-20T15:28:10.497Z,3.40
2019-06-20T15:30:41.593Z,4.08
2019-06-20T15:33:13.930Z,3.97
2019-06-20T15:35:45.095Z,4.58
2019-06-20T15:38:15.079Z,4.63
2019-06-20T15:40:49.751Z,4.05
2019-06-20T15:43:20.137Z,3.77
2019-06-20T15:45:50.736Z,4.33
2019-06-20T15:48:24.524Z,4.20
2019-06-20T15:50:55.683Z,4.40
2019-06-20T15:53:27.088Z,4.47
2019-06-20T15:56:01.341Z,5.05
2019-06-20T15:58:31.385Z,5.23
2019-06-20T16:01:02.766Z,4.90
2019-06-20T16:03:33.766Z,4.63
2019-06-20T16:06:07.110Z,4.47
2019-06-20T16:08:38.092Z,5.00
2019-06-20T16:11:09.110Z,4.63
2019-06-20T16:13:40.343Z,5.00
2019-06-20T16:16:11.556Z,5.03
2019-06-20T16:18:42.576Z,5.30
2019-06-20T16:21:13.618Z,4.73
2019-06-20T16:23:48.779Z,4.30
2019-06-20T16:26:18.768Z,4.62
2019-06-20T16:28:50.162Z,4.70
2019-06-20T16:31:26.878Z,4.43
2019-06-20T16:33:54.900Z,4.50
2019-06-20T16:36:24.826Z,4.93
2019-06-20T16:38:55.242Z,5.20
2019-06-20T17:36:17.727Z,5.30
2019-06-20T17:38:39.748Z,4.93
2019-06-20T17:41:09.744Z,5.37
2019-06-20T17:43:39.800Z,4.57
2019-06-20T17:46:12.132Z,5.90
2019-06-20T17:48:43.301Z,5.57
2019-06-20T17:51:18.295Z,6.65
2019-06-20T17:53:49.811Z,13.47
2019-06-20T17:56:19.843Z,9.57
2019-06-20T17:58:53.556Z,9.23
2019-06-20T18:01:25.324Z,9.27
2019-06-20T18:03:56.538Z,5.80
2019-06-20T18:06:27.876Z,3.93
2019-06-20T18:09:01.208Z,4.60
2019-06-20T18:11:33.507Z,4.43
2019-06-20T18:14:05.914Z,4.40
2019-06-20T18:16:35.928Z,4.43
2019-06-20T18:19:06.987Z,4.30
2019-06-20T18:21:39.720Z,4.93
2019-06-20T18:24:09.014Z,4.40
2019-06-20T18:26:42.035Z,5.17
2019-06-20T18:29:15.153Z,4.03
2019-06-20T18:31:46.679Z,4.63
2019-06-20T18:34:29.579Z,4.37
2019-06-20T18:36:52.716Z,4.10
2019-06-20T18:39:25.092Z,4.43
2019-06-20T18:41:56.885Z,3.97
2019-06-20T18:44:28.787Z,4.00
2019-06-20T18:47:00.561Z,4.73
2019-06-20T18:49:32.083Z,4.30
2019-06-20T18:52:04.784Z,4.50
2019-06-20T18:54:35.785Z,4.80
2019-06-20T18:57:08.685Z,4.60
2019-06-20T18:59:42.685Z,4.20
2019-06-20T19:02:12.735Z,4.60
2019-06-20T19:04:49.631Z,4.83
2019-06-20T19:07:15.648Z,4.20
2019-06-20T19:09:45.607Z,4.50
2019-06-20T19:12:16.302Z,5.00
2019-06-20T19:14:49.637Z,4.00
2019-06-20T19:17:24.889Z,4.33
2019-06-20T19:19:57.097Z,4.27
2019-06-20T19:22:28.285Z,4.47
2019-06-20T19:24:58.999Z,4.47
2019-06-20T19:27:44.740Z,4.07
2019-06-20T19:30:04.225Z,4.60
2019-06-20T19:32:36.673Z,4.40
2019-06-20T19:35:11.253Z,4.87
2019-06-20T19:37:45.988Z,5.67
2019-06-20T19:40:17.822Z,4.47
2019-06-20T19:42:48.027Z,4.80
2019-06-20T19:45:19.256Z,4.23
2019-06-20T19:47:50.288Z,4.40
2019-06-20T19:50:21.744Z,4.40
2019-06-20T19:52:55.578Z,5.17
2019-06-20T19:55:27.660Z,4.80
2019-06-20T19:57:57.751Z,4.53
2019-06-20T20:00:28.745Z,5.17
2019-06-20T20:03:00.183Z,4.87
2019-06-20T20:05:31.310Z,5.57
2019-06-20T20:08:02.566Z,5.43
2019-06-20T20:10:53.033Z,5.53
2019-06-20T20:13:24.032Z,5.30
2019-06-20T20:15:55.218Z,6.27
2019-06-20T20:18:29.211Z,5.90
2019-06-20T20:21:00.219Z,5.37
2019-06-20T20:23:29.517Z,5.80
2019-06-20T20:26:00.722Z,5.50
2019-06-20T20:28:34.022Z,5.53
2019-06-20T20:31:05.138Z,5.70
2019-06-20T20:33:36.049Z,5.07
2019-06-20T20:36:23.768Z,5.03
2019-06-20T20:38:43.544Z,5.63
2019-06-20T20:41:14.659Z,6.10
2019-06-20T20:43:44.729Z,5.23
2019-06-20T20:46:17.365Z,5.27
2019-06-20T20:48:48.699Z,5.97
2019-06-20T20:51:22.010Z,5.87
2019-06-20T20:53:52.316Z,5.20
2019-06-20T20:56:22.418Z,5.70
2019-06-20T20:58:53.693Z,5.90
2019-06-20T21:01:29.336Z,5.10
2019-06-20T21:04:03.081Z,4.87
2019-06-20T21:06:36.177Z,5.03
2019-06-20T21:09:09.187Z,5.40
2019-06-20T21:11:39.121Z,4.60
2019-06-20T21:14:09.186Z,5.00
2019-06-20T21:16:39.121Z,5.07
2019-06-20T21:19:10.134Z,5.00
2019-06-20T23:00:27.025Z,5.10
2019-06-20T23:03:00.381Z,5.20
2019-06-20T23:05:31.478Z,5.07
2019-06-20T23:08:06.299Z,5.47
2019-06-20T23:10:37.237Z,5.13
2019-06-20T23:13:08.273Z,5.90
2019-06-20T23:15:39.282Z,5.83
2019-06-20T23:18:10.412Z,5.63
2019-06-20T23:20:41.682Z,5.57
2019-06-20T23:23:11.733Z,5.20
2019-06-20T23:25:44.523Z,5.53
2019-06-20T23:38:39.381Z,5.90
2019-06-20T23:41:08.751Z,6.73
2019-06-20T23:43:48.295Z,6.53
2019-06-20T23:46:20.716Z,6.70
2019-06-20T23:48:50.813Z,5.57
2019-06-20T23:51:25.540Z,6.47
2019-06-20T23:53:53.959Z,6.10
2019-06-20T23:56:25.070Z,7.17
2019-06-20T23:58:57.805Z,5.80
